Etusivu
METAR-TAF:

METAR-TAF

Lentoasemat :

Nancy, Ranska

Leveyspiiri: 48-41N, Pituuspiiri: 006-13E, korkeus merenpinnasta: 225 m

Tämänhetkinen sää

Tämä raportti tehtiin 13 minuuttia sitten, kello 19.30 UTC
Tuuli 4 kn lännestä/lounaasta
Lämpötila 5°C
Kosteus 87%
Ilmanpaine 1004 hPa
Näkyvyys 10 km tai enemmän
Hajonneita pilviä 4000 ft:n korkeudessa

METAR: LFSN 121930Z AUTO 24004KT 9999 BKN040 05/03 Q1004

Aika: 20:43 (19:43 UTC)


TAF: puuttuu

Säähavainnot ja -ennusteet yli 4000 lentoasemalta (METAR- ja TAF-raportit).

Käytössä olevat sääasemat on merkitty karttaan keltaisilla ja punaisilla pisteillä.

Aseta hiiri pisteen päälle nähdäksesi sääaseman nimen.

Klikkaa sitten nähdäksesi säähavainnot ja -ennusteet.

Kartan vaihtaminen: klikkaa mustalla rastilla varustettuja vihreitä pisteitä, niin voit zoomata sisään; viivalla varustettua vihreää pistettä, niin voit zoomata ulos tai vihreitä nuolia, niin pääset viereisille kartoille.


METAR-TAF: